Terminal Aerodrome Forecast
Issued by NWS

Home | Current Version | Previous Version | Text Only | Print | Product List | Glossary On
Versions: 1 2 3 4 5 6 7 8 9 10 11 12 13 14 15 16 17 18 19 20 21 22 23 24 25 26 27 28 29 30 31 32 33 34 35 36
000
FTAK31 PAFA 280025 AAB
TAFATA
TAF AMD
PATA 280025Z 2800/2824 25008KT P6SM BKN040 BKN060
      TEMPO 2800/2801 1SM -SN BR BKN025
     FM280800 28007KT 4SM BR VCSH SCT015 BKN025 BKN050
     FM281000 31003KT 2SM BR OVC015
     FM281600 33003KT 4SM BR BKN015 OVC030
     FM282000 32003KT P6SM SKC=

USA.gov is the U.S. government's official web portal to all federal, state and local government web resources and services.